Latest Weather Observations for Middle Point

IDD60801

Issued at 9:31 pm CST Sunday 25 September 2016 (issued every 30 minutes, with the page automatically refreshed every 10 minutes)

About weather observations | Map of weather stations | Latest weather observations for NT | Other Formats
Station Details ID: 014041 Name: MIDDLE POINT Lat: -12.61 Lon: 131.30 Height: 14.1 m
Data from the previous 72 hours. | See also: Recent months at Middle Point
Date/Time
CST
Temp
°C
App
Temp
°C
Dew
Point
°C
Rel
Hum
%
Delta-T
°C
Wind Press
QNH
hPa
Press
MSL
hPa
Rain since
9am
mm
Dir  Spd
km/h
Gust
km/h
Spd
kts
Gust
kts
25/09:30pm 26.8 30.5 23.3 81 2.4 W 9 9 5 5 1009.4 1009.3 0.0
25/09:00pm 26.8 30.6 22.4 77 3.0 WNW 6 7 3 4 1009.2 1009.1 0.0
25/08:30pm 27.0 30.6 22.0 74 3.4 WNW 6 6 3 3 1008.8 1008.7 0.0
25/08:00pm 27.1 31.0 21.8 73 3.5 WNW 4 6 2 3 1008.4 1008.3 0.0
25/07:30pm 28.1 31.9 21.6 68 4.4 WNW 4 6 2 3 1008.1 1008.0 0.0
25/07:00pm 28.7 31.9 21.7 66 4.7 NW 7 11 4 6 1007.6 1007.5 0.0
25/06:30pm 29.3 30.8 21.3 62 5.4 WSW 15 22 8 12 1007.3 1007.2 0.0
25/06:00pm 29.7 32.1 22.2 64 5.1 W 13 20 7 11 1006.9 1006.8 0.0
25/05:30pm 30.4 32.5 20.9 57 6.3 W 11 15 6 8 1006.6 1006.5 0.0
25/05:00pm 30.8 32.6 20.4 54 6.9 NW 11 17 6 9 1006.4 1006.3 0.0
25/04:30pm 30.5 31.1 19.5 51 7.2 NW 15 19 8 10 1006.2 1006.1 0.0
25/04:00pm 30.5 30.5 20.1 53 6.9 NW 20 28 11 15 1006.2 1006.1 0.0
25/03:30pm 32.1 32.0 20.7 51 7.6 NNW 22 32 12 17 1006.1 1006.0 0.0
25/03:24pm 32.4 32.3 20.0 48 8.2 NNW 20 32 11 17 1006.1 1006.0 0.0
25/03:00pm 37.4 38.6 17.4 30 13.0 S 7 15 4 8 1006.1 1006.0 0.0
25/02:30pm 36.8 38.2 17.9 33 12.3 WSW 7 13 4 7 1006.3 1006.2 0.0
25/02:00pm 36.4 37.7 17.5 32 12.2 NNE 7 13 4 7 1006.7 1006.6 0.0
25/01:30pm 35.4 36.1 16.2 32 12.2 S 7 13 4 7 1007.3 1007.2 0.0
25/01:00pm 35.3 36.4 18.0 36 11.2 SSW 9 15 5 8 1007.8 1007.7 0.0
25/12:30pm 34.9 36.2 17.6 35 11.2 WNW 7 13 4 7 1008.4 1008.3 0.0
25/12:00pm 35.1 37.3 19.5 40 10.4 WNW 7 15 4 8 1009.0 1008.9 0.0
25/11:30am 33.9 36.1 19.6 43 9.5 W 7 15 4 8 1009.6 1009.6 0.0
25/11:00am 33.4 35.7 19.8 44 9.0 WSW 7 15 4 8 1010.1 1010.1 0.0
25/10:30am 32.2 34.7 21.1 52 7.5 WNW 9 15 5 8 1010.2 1010.2 0.0
25/10:00am 31.8 35.7 22.5 58 6.4 W 6 9 3 5 1010.3 1010.3 0.0
25/09:30am 31.0 34.7 22.3 60 5.9 W 6 11 3 6 1010.4 1010.4 0.0
25/09:00am 29.6 34.5 23.1 68 4.5 SW 2 4 1 2 1010.4 1010.4 0.8
25/08:30am 28.5 34.0 23.4 74 3.5 CALM 0 0 0 0 1010.1 1010.1 0.8
25/08:00am 26.4 31.2 22.9 81 2.4 S 2 6 1 3 1009.5 1009.5 0.8
25/07:30am 24.6 29.9 23.0 91 1.1 CALM 0 0 0 0 1009.0 1008.9 0.8
25/07:00am 23.2 27.8 21.8 92 0.9 CALM 0 0 0 0 1008.8 1008.7 0.8
25/06:30am 22.5 26.6 20.8 90 1.1 CALM 0 0 0 0 1008.6 1008.5 0.8
25/06:00am 23.4 28.0 21.7 90 1.1 CALM 0 0 0 0 1008.6 1008.5 0.8
25/05:30am 23.5 28.1 21.8 90 1.1 CALM 0 0 0 0 1008.3 1008.2 0.8
25/05:00am 23.8 28.1 21.9 89 1.3 ENE 2 4 1 2 1008.2 1008.1 0.8
25/04:30am 24.1 28.7 22.4 90 1.1 NNE 2 4 1 2 1008.0 1007.9 0.8
25/04:00am 24.1 27.8 22.2 89 1.3 NNE 6 6 3 3 1007.9 1007.8 0.8
25/03:30am 24.5 29.0 22.2 87 1.5 ENE 2 4 1 2 1007.9 1007.8 0.8
25/03:00am 25.2 29.5 22.7 86 1.7 E 4 6 2 3 1007.9 1007.8 0.8
25/02:30am 25.8 31.1 23.1 85 1.8 CALM 0 0 0 0 1008.1 1008.0 0.8
25/02:00am 26.2 31.6 23.3 84 2.0 CALM 0 0 0 0 1008.2 1008.1 0.8
25/01:30am 26.1 31.0 23.0 83 2.1 W 2 4 1 2 1008.5 1008.4 0.8
25/01:00am 26.2 30.5 23.3 84 2.0 W 6 7 3 4 1008.7 1008.6 0.8
25/12:30am 26.0 30.6 23.1 84 2.0 SW 4 4 2 2 1009.0 1008.9 0.8
25/12:00am 26.0 31.4 23.3 85 1.8 CALM 0 0 0 0 1009.3 1009.2 0.8
 
Date/Time
CST
Temp
°C
App
Temp
°C
Dew
Point
°C
Rel
Hum
%
Delta-T
°C
Wind Press
QNH
hPa
Press
MSL
hPa
Rain since
9am
mm
Dir  Spd
km/h
Gust
km/h
Spd
kts
Gust
kts
24/11:30pm 25.4 30.0 22.5 84 2.0 W 2 4 1 2 1009.3 1009.2 0.8
24/11:00pm 25.5 29.3 22.4 83 2.1 WSW 6 7 3 4 1009.5 1009.5 0.8
24/10:30pm 26.0 31.0 22.5 81 2.4 CALM 0 0 0 0 1009.5 1009.5 0.8
24/10:00pm 26.7 31.7 22.5 78 2.8 CALM 0 2 0 1 1009.3 1009.2 0.8
24/09:30pm 26.9 31.1 22.5 77 3.0 WSW 4 6 2 3 1009.1 1009.0 0.8
24/09:00pm 27.0 30.7 22.2 75 3.2 S 6 9 3 5 1008.9 1008.8 0.8
24/08:30pm 27.7 31.5 22.4 73 3.6 SSW 6 9 3 5 1008.6 1008.5 0.8
24/08:00pm 27.6 31.6 22.8 75 3.3 W 6 6 3 3 1008.2 1008.1 0.8
24/07:30pm 27.7 31.5 22.4 73 3.6 W 6 7 3 4 1007.7 1007.6 0.8
24/07:00pm 27.9 31.1 22.4 72 3.7 W 9 15 5 8 1007.3 1007.2 0.8
24/06:30pm 29.4 32.6 22.4 66 4.8 W 9 13 5 7 1007.0 1006.9 0.8
24/06:00pm 30.5 33.7 22.4 62 5.5 WNW 9 15 5 8 1006.6 1006.5 0.8
24/05:30pm 31.2 34.1 22.5 60 6.0 NW 11 17 6 9 1006.2 1006.1 0.8
24/05:00pm 30.7 32.9 22.6 62 5.5 NW 15 17 8 9 1005.8 1005.7 0.8
24/04:30pm 32.6 34.6 20.8 49 7.9 N 11 17 6 9 1005.6 1005.5 0.8
24/04:00pm 31.8 33.1 21.6 54 6.9 NNW 17 20 9 11 1005.8 1005.7 0.8
24/03:30pm 30.9 30.5 21.7 58 6.2 N 26 33 14 18 1006.0 1005.9 0.8
24/03:00pm 32.8 36.4 22.3 54 7.2 NNW 7 11 4 6 1006.2 1006.1 0.6
24/02:30pm 33.9 35.0 18.8 41 9.9 N 11 19 6 10 1006.5 1006.4 0.0
24/02:00pm 33.8 36.0 19.1 42 9.7 NNE 6 13 3 7 1007.0 1006.9 0.0
24/01:30pm 34.6 36.7 19.0 39 10.3 NNE 6 17 3 9 1007.5 1007.4 0.0
24/01:00pm 33.7 35.2 19.0 42 9.6 NNE 9 17 5 9 1008.2 1008.1 0.0
24/12:30pm 33.6 35.3 18.1 39 10.1 ENE 6 11 3 6 1008.9 1008.8 0.0
24/12:00pm 33.2 35.4 19.3 44 9.2 E 6 11 3 6 1009.8 1009.8 0.0
24/11:30am 32.7 35.2 19.9 46 8.5 ENE 6 13 3 7 1010.3 1010.3 0.0
24/11:00am 32.0 34.0 19.9 48 8.0 NE 9 20 5 11 1010.9 1010.8 0.0
24/10:30am 32.3 34.7 20.9 51 7.6 NE 9 15 5 8 1011.3 1011.2 0.0
24/10:00am 31.0 34.5 21.8 58 6.2 N 6 13 3 7 1011.5 1011.4 0.0
24/09:30am 30.9 34.8 21.9 58 6.1 NE 4 13 2 7 1011.6 1011.5 0.0
24/09:00am 29.0 33.2 22.5 68 4.4 E 4 9 2 5 1011.9 1011.8 0.2
24/08:30am 28.1 32.6 23.7 77 3.0 ESE 6 9 3 5 1011.7 1011.6 0.2
24/08:00am 26.8 31.5 24.3 86 1.7 E 7 9 4 5 1011.4 1011.3 0.2
24/07:30am 25.3 29.1 23.5 90 1.2 ESE 9 13 5 7 1011.0 1010.9 0.2
24/07:00am 24.1 28.8 22.7 92 0.9 ESE 2 6 1 3 1010.5 1010.5 0.2
24/06:30am 23.2 27.7 21.5 90 1.1 CALM 0 0 0 0 1010.0 1010.0 0.2
24/06:00am 23.7 28.4 22.0 90 1.1 CALM 0 0 0 0 1009.8 1009.8 0.2
24/05:30am 23.9 28.0 22.3 91 1.1 E 4 4 2 2 1009.5 1009.5 0.2
24/05:00am 23.9 27.6 22.3 91 1.1 NE 6 6 3 3 1009.2 1009.1 0.2
24/04:30am 23.7 28.4 22.0 90 1.1 CALM 0 0 0 0 1008.9 1008.8 0.2
24/04:00am 23.8 28.5 21.9 89 1.3 CALM 0 0 0 0 1008.9 1008.8 0.2
24/03:30am 24.6 29.6 22.5 88 1.4 CALM 0 0 0 0 1009.0 1008.9 0.2
24/03:00am 24.6 29.5 22.3 87 1.5 CALM 0 0 0 0 1009.1 1009.0 0.2
24/02:30am 25.3 30.6 23.0 87 1.6 CALM 0 0 0 0 1009.2 1009.1 0.2
24/02:00am 25.5 30.7 22.8 85 1.8 CALM 0 0 0 0 1009.5 1009.5 0.2
24/01:30am 25.6 30.3 22.7 84 2.0 NW 2 4 1 2 1009.6 1009.6 0.2
24/01:00am 25.6 29.4 22.7 84 2.0 NW 7 9 4 5 1009.8 1009.8 0.2
24/12:30am 25.5 29.3 22.8 85 1.8 N 7 9 4 5 1010.0 1010.0 0.2
24/12:00am 25.0 29.0 22.1 84 1.9 NW 4 4 2 2 1009.9 1009.9 0.2
 
Date/Time
CST
Temp
°C
App
Temp
°C
Dew
Point
°C
Rel
Hum
%
Delta-T
°C
Wind Press
QNH
hPa
Press
MSL
hPa
Rain since
9am
mm
Dir  Spd
km/h
Gust
km/h
Spd
kts
Gust
kts
23/11:30pm 25.2 28.9 22.3 84 1.9 NNW 6 6 3 3 1010.1 1010.1 0.2
23/11:00pm 25.4 29.0 22.1 82 2.2 NW 6 7 3 4 1010.2 1010.2 0.2
23/10:30pm 25.7 29.3 22.0 80 2.5 WNW 6 6 3 3 1009.9 1009.9 0.2
23/10:00pm 26.2 30.2 22.1 78 2.7 WNW 4 4 2 2 1009.7 1009.7 0.2
23/09:30pm 26.2 30.2 22.1 78 2.8 W 4 6 2 3 1009.4 1009.3 0.2
23/09:00pm 26.7 30.4 22.3 77 3.0 W 6 6 3 3 1009.1 1009.0 0.2
23/08:30pm 27.5 31.1 22.4 73 3.4 W 7 9 4 5 1008.6 1008.5 0.2
23/08:00pm 28.0 31.9 22.9 74 3.5 W 7 9 4 5 1008.3 1008.2 0.2
23/07:30pm 28.5 32.1 23.0 72 3.8 W 9 13 5 7 1008.0 1007.9 0.2
23/07:00pm 28.9 31.8 22.4 68 4.4 W 11 15 6 8 1007.7 1007.6 0.2
23/06:30pm 29.5 31.9 22.2 65 5.0 WNW 13 15 7 8 1007.4 1007.3 0.2
23/06:00pm 31.3 32.5 19.0 48 8.0 NW 11 17 6 9 1007.0 1006.9 0.2
23/05:30pm 31.9 33.0 18.1 43 8.9 NW 9 15 5 8 1006.8 1006.7 0.2
23/05:00pm 32.2 32.7 18.4 44 8.9 NNW 13 19 7 10 1006.7 1006.6 0.2
23/04:30pm 32.4 33.0 18.6 44 9.0 NNW 13 19 7 10 1006.5 1006.4 0.2
23/04:00pm 31.9 32.4 19.2 47 8.3 N 15 20 8 11 1006.5 1006.4 0.2
23/03:30pm 32.8 33.6 20.7 49 8.1 N 17 24 9 13 1006.5 1006.4 0.2
23/03:00pm 32.9 33.6 20.4 47 8.4 N 17 22 9 12 1007.0 1006.9 0.2
23/02:30pm 32.6 33.6 21.1 50 7.7 N 17 30 9 16 1007.5 1007.4 0.2
23/02:00pm 33.3 33.4 21.8 51 7.8 N 24 32 13 17 1007.7 1007.6 0.2
23/01:30pm 31.8 33.2 21.9 55 6.7 N 17 22 9 12 1008.5 1008.4 0.2
23/01:00pm 30.8 32.5 22.4 61 5.7 N 17 20 9 11 1009.1 1009.0 0.2
23/12:30pm 33.7 34.5 19.0 42 9.7 NE 13 26 7 14 1009.4 1009.3 0.2
23/12:00pm 32.9 35.5 20.4 47 8.3 E 7 15 4 8 1010.2 1010.2 0.2
23/11:30am 32.9 34.5 20.8 49 8.1 ESE 13 22 7 12 1010.7 1010.7 0.0
23/11:00am 31.6 33.6 21.5 55 6.8 NE 13 20 7 11 1011.5 1011.4 0.0
23/10:30am 30.6 32.6 20.8 56 6.5 ENE 11 17 6 9 1012.1 1012.0 0.0
23/10:00am 30.0 33.2 21.7 61 5.6 NE 7 15 4 8 1012.5 1012.4 0.0
23/09:30am 28.7 32.7 22.7 70 4.1 NE 6 9 3 5 1012.6 1012.5 0.0
23/09:00am 28.0 33.2 24.2 80 2.6 NE 4 6 2 3 1012.7 1012.6 3.6
23/08:30am 27.3 31.6 23.3 79 2.7 NE 6 7 3 4 1012.3 1012.2 3.6
23/08:00am 26.1 31.0 23.6 86 1.7 NNE 4 7 2 4 1012.1 1012.0 3.0
23/07:30am 25.2 30.4 22.9 87 1.6 CALM 0 0 0 0 1011.8 1011.7 0.0
23/07:00am 24.5 28.4 22.6 89 1.3 E 6 6 3 3 1011.5 1011.4 0.0
23/06:30am 24.2 27.8 22.1 88 1.4 ENE 6 7 3 4 1011.0 1010.9 0.0
23/06:00am 24.8 29.9 22.7 88 1.4 CALM 0 0 0 0 1010.5 1010.5 0.0
23/05:30am 24.4 29.4 22.5 89 1.3 CALM 0 0 0 0 1010.2 1010.2 0.0
23/05:00am 23.7 28.2 21.6 88 1.4 CALM 0 0 0 0 1009.8 1009.8 0.0
23/04:30am 23.4 27.8 21.3 88 1.4 CALM 0 0 0 0 1009.6 1009.6 0.0
23/04:00am 23.8 28.4 21.7 88 1.4 CALM 0 0 0 0 1009.7 1009.7 0.0
23/03:30am 23.8 27.2 21.7 88 1.4 W 6 6 3 3 1009.8 1009.8 0.0
23/03:00am 24.5 29.2 22.0 86 1.7 CALM 0 0 0 0 1009.9 1009.9 0.0
23/02:30am 24.9 29.7 22.2 85 1.8 CALM 0 0 0 0 1010.1 1010.1 0.0
23/02:00am 24.9 29.7 22.2 85 1.8 CALM 0 2 0 1 1010.3 1010.3 0.0
23/01:30am 24.4 28.4 21.3 83 2.0 NNW 2 2 1 1 1010.6 1010.6 0.0
23/01:00am 24.7 28.2 21.8 84 1.9 N 6 7 3 4 1010.9 1010.8 0.0
23/12:30am 25.1 29.3 22.4 85 1.8 NNW 4 4 2 2 1011.3 1011.2 0.0
23/12:00am 25.3 29.6 22.0 82 2.2 WNW 2 4 1 2 1011.3 1011.2 0.0
 
Date/Time
CST
Temp
°C
App
Temp
°C
Dew
Point
°C
Rel
Hum
%
Delta-T
°C
Wind Press
QNH
hPa
Press
MSL
hPa
Rain since
9am
mm
Dir  Spd
km/h
Gust
km/h
Spd
kts
Gust
kts
22/11:30pm 25.4 29.7 21.9 81 2.3 W 2 4 1 2 1011.5 1011.4 0.0
22/11:00pm 25.8 30.4 21.7 78 2.7 CALM 0 0 0 0 1011.4 1011.3 0.0
22/10:30pm 26.1 29.5 21.7 77 2.9 SSW 6 7 3 4 1011.5 1011.4 0.0
22/10:00pm 26.2 29.6 21.6 76 3.1 W 6 6 3 3 1011.1 1011.0 0.0

Other Formats:

Comma delimited format used in spreadsheet applications
http://www.bom.gov.au/fwo/IDD60801/IDD60801.95121.axf

JavaScript Object Notation format (JSON) in row-major order
http://www.bom.gov.au/fwo/IDD60801/IDD60801.95121.json